Port Stanley — V7EE9 — position and weather

sailwx.info

Track history (hours):
 
Tides and Currents Weather Stations Pressure Air Temp Water Temp Dewpoint Dewpoint Depression Visibility Wind Speed Wind Dir Waves Ship Positions

Port Stanley

Last reported at 2015-Jul-21 11:23 UTC. Time now 2015-Jul-28 05:48 UTC.
Position N 01°16' E 104°13'.

Length 183 m; draft 12 m.

Type: Ship. MMSI: 538090299.

Date/timePositionNaut miles runAvg speedWind from/ knotsBaromVisibWave heightAir tempDewpointWater temp
2015-Jul-21 11:23N 01°16' E 104°13'1011.6
2015-Jul-21 10:33N 01°15' E 104°04'1211.3
2015-Jul-21 09:31N 01°11' E 103°52'  
2015-Jul-18 20:33N 01°12' E 103°51'1010.3
2015-Jul-18 19:33N 01°15' E 104°00'1210.8
2015-Jul-18 18:24N 01°17' E 104°13'  
2015-Jul-11 14:12N 01°15' E 104°01'913.7
2015-Jul-11 13:34N 01°12' E 103°53'5 2.4
2015-Jul-11 11:28N 01°14' E 103°48'  
Track history (hours):
 
Tides and Currents Weather Stations Pressure Air Temp Water Temp Dewpoint Dewpoint Depression Visibility Wind Speed Wind Dir Waves Ship Positions

Port Stanley

Last reported at 2015-Jul-21 11:23 UTC. Time now 2015-Jul-28 05:48 UTC.
Position N 01°16' E 104°13'.

Length 183 m; draft 12 m.

Type: Ship. MMSI: 538090299.

Date/timePositionNaut miles runAvg speedWind from/ knotsBaromVisibWave heightAir tempDewpointWater temp
2015-Jul-21 11:23N 01°16' E 104°13'1011.6
2015-Jul-21 10:33N 01°15' E 104°04'1211.3
2015-Jul-21 09:31N 01°11' E 103°52'  
2015-Jul-18 20:33N 01°12' E 103°51'1010.3
2015-Jul-18 19:33N 01°15' E 104°00'1210.8
2015-Jul-18 18:24N 01°17' E 104°13'  
2015-Jul-11 14:12N 01°15' E 104°01'913.7
2015-Jul-11 13:34N 01°12' E 103°53'5 2.4
2015-Jul-11 11:28N 01°14' E 103°48'  

Dump ship's entire track history